Tomas Kuklys

Olheiro-Chefe - Utenis
3 Dez 2028
Domingo
Processo

Personalidade

Adaptabilidade (6) Ambição (13) Controvérsia (16) Lealdade (18) Pressão (7) Profissionalismo (16) Espírito Esportivo (13) Temperamento (16)

Perfil

Estilo de Treinamento Democrático
Licença Continental C
Determinação 3
Gestão de Pessoas 5
Motivação 3
Disciplina 5
Satisfação no Trabalho
100%
Fadiga
0%
Função Olheiro-Chefe
Salário 31.4K p/s
Contrato 14.03.2030

Desempenho

Comportamento Bom
Eficácia do Treinamento
25%
Desenvolvimento do Jogador
30%
Prevenção de Lesões
20%
Implementação Tática
20%

Eventos Recentes

Participou de uma reunião de recrutamento agora
Recomendou um alvo de transferência agora
Participou de uma reunião de recrutamento agora
Participou de uma reunião de recrutamento agora
Participou de uma reunião de recrutamento agora
Avaliou um jogador agora
Avaliou um jogador agora
Avaliou um jogador agora

Monitorando agora

80
Jogador Clube Status Habilidade Confiança Observado Última observação Último voto
Luis Olivera Defensores Unidos Ativo 101 / 117 40% 2 02.12.2028 -
Marcos Enrique Tristán Suárez Ativo 114 / 107 40% 1 02.12.2028 -
Nicolás Fernández Maipú Ativo 117 / 106 40% 3 01.12.2028 -
Gonzalo Trindade Nueva Chicago Ativo 124 / 105 40% 1 01.12.2028 -
Agustín Sosa Madryn Ativo 105 / 108 40% 2 30.11.2028 -
Abel Bustos Racing Ativo 100 / 106 40% 2 30.11.2028 -
Ian Pérez Defensores Ativo 118 / 98 40% 2 29.11.2028 -
Vladislav Karpenya Baranovichi Ativo 91 / 88 40% 1 28.11.2028 -
Iván Peralta Arsenal Ativo 103 / 99 40% 1 28.11.2028 -
Tomás Ferreyra Defensores Unidos Ativo 128 / 108 40% 3 27.11.2028 -
Joaquín Livera Morón Ativo 92 / 105 40% 1 27.11.2028 -
Santiago Longo Belgrano Ativo 117 / 133 40% 3 25.11.2028 -
Pedro Souto Temperley Ativo 117 / 107 40% 2 25.11.2028 -
Lucas Más Maipú Ativo 99 / 106 40% 1 22.11.2028 -
Lautaro Núñez Alvarado Ativo 111 / 95 40% 1 19.11.2028 -
Ramiro Makarte Alvarado Ativo 105 / 102 40% 1 19.11.2028 -
Ji-hun Park Minsk Ativo 102 / 92 40% 1 16.11.2028 -
Carlos Casas San Telmo Ativo 108 / 102 40% 1 16.11.2028 -
Federico Ulayar Talleres Ativo 110 / 106 40% 1 14.11.2028 -
Bruno Leyes Godoy Cruz Ativo 125 / 119 40% 1 14.11.2028 -
Braian Aranda Agropecuario Argentino Ativo 121 / 110 40% 1 13.11.2028 -
Facundo Rodríguez Estudiantes Ativo 140 / 121 40% 1 13.11.2028 -
Vladislav Melko Torpedo-BelAZ Ativo 90 / 97 40% 1 12.11.2028 -
Artemiy Litvinov Naftan Ativo 79 / 79 40% 1 12.11.2028 -
Lautaro Vargas Unión de Santa Fe Ativo 130 / 130 40% 1 11.11.2028 -
Damián Adín San Miguel Ativo 129 / 116 40% 2 10.11.2028 -
Tomás Castro Ponce Atlanta Ativo 117 / 106 40% 1 10.11.2028 -
Enzo Silcan Almagro Ativo 102 / 106 40% 1 08.11.2028 -
Gabriel Altamirano Almirante Brown Ativo 112 / 107 40% 1 05.11.2028 -
Eyder Restrepo Llaneros Ativo 120 / 103 40% 1 05.11.2028 -
Evgeniy Yudchits Isloch Ativo 90 / 97 40% 1 03.11.2028 -
Evgeniy Novykh Vitebsk Ativo 95 / 92 40% 2 01.11.2028 -
Pablo Cardona Cortulua Ativo 132 / 127 40% 2 01.11.2028 -
Yeferson Rodallega Envigado Ativo 110 / 112 40% 2 31.10.2028 -
Matías Bazzi Talleres Ativo 118 / 105 40% 1 31.10.2028 -
Luis Palacios Once Caldas Ativo 114 / 127 40% 3 30.10.2028 -
Franco Díaz Temperley Ativo 139 / 127 40% 1 30.10.2028 -
Luciano Arnijas Maipú Ativo 101 / 120 40% 1 29.10.2028 -
Julio López Defensores Unidos Ativo 107 / 101 40% 1 29.10.2028 -
Iván Cabrera Arsenal Ativo 103 / 104 40% 2 28.10.2028 -
Inti Borghetto Patronato Ativo 84 / 95 40% 1 28.10.2028 -
Tomás Rojas Atlanta Ativo 115 / 113 40% 2 27.10.2028 -
Tomás Oneto Güemes Ativo 98 / 100 40% 1 27.10.2028 -
Olawale Emmanuel Niger Tornadoes Ativo 82 / 81 40% 1 25.10.2028 -
Valentín Aguiñagalde Temperley Ativo 121 / 118 40% 1 23.10.2028 -
Peter Ikechukwu Kun Khalifat Ativo 75 / 75 40% 1 23.10.2028 -
Martín García Atlanta Ativo 111 / 110 40% 1 22.10.2028 -
Brian Nievas Chaco For Ever Ativo 96 / 110 40% 2 21.10.2028 -
Agustín Benítez Defensores Ativo 120 / 119 40% 1 20.10.2028 -
Mauricio Guzmán Tristán Suárez Ativo 105 / 117 40% 1 20.10.2028 -
Siro Rosané Estudiantes Ativo 127 / 125 40% 1 17.10.2028 -
Gonzalo Gamarra Defensores Ativo 118 / 115 40% 1 17.10.2028 -
Laureano Rodríguez San Martín Ativo 95 / 106 40% 1 15.10.2028 -
Yeison Suárez Deportivo Pereira Ativo 120 / 124 40% 1 13.10.2028 -
Pedro Sanz Central Norte Ativo 97 / 115 40% 1 13.10.2028 -
Walter Juárez Güemes Ativo 108 / 110 40% 1 12.10.2028 -
Egor Imeryakov Molodechno Ativo 87 / 88 40% 1 08.10.2028 -
Brian Aguilar Tristán Suárez Ativo 129 / 121 40% 1 07.10.2028 -
Ilya Rutskiy Torpedo-BelAZ Ativo 102 / 90 40% 1 06.10.2028 -
Francisco Ginella Albion Ativo 101 / 105 40% 1 06.10.2028 -
Rodrigo Ramírez Nueva Chicago Ativo 114 / 109 40% 1 04.10.2028 -
Guillermo Rodríguez San Martín Ativo 96 / 105 40% 1 02.10.2028 -
Igor Tyjon Barrow AFC Ativo 127 / 127 40% 1 27.06.2028 -
Jamie Mullins Wycombe Wanderers Ativo 119 / 103 40% 1 27.06.2028 -
Stanislav Magkeev Fakel Ativo 107 / 114 40% 1 26.06.2028 -
Daniil Penchikov Arsenal Tula Ativo 109 / 108 40% 1 26.06.2028 -
Ignas Girdvainis Atlantas Ativo 88 / 85 58% 1 06.06.2028 Aprovar
Leonardo Ponte Trakai Ativo 59 / 76 58% 1 17.01.2028 -
Gianluca Pugliese Güemes Ativo 123 / 111 40% 1 31.12.2027 Mais informações
Kirill Leonovich Gomel Ativo 108 / 90 40% 1 25.08.2027 -
Ignas Dubickas Siauliai Ativo 49 / 59 58% 1 05.07.2027 -
Bashar Musa US Forces Armees Ativo 96 / 74 40% 1 23.06.2027 -
Ignas Paulauskas Trakai Ativo 61 / 67 58% 1 01.06.2027 -
Ivan Severjanov Volna Ativo 77 / 72 40% 1 18.01.2027 -
Daniil Agureev Amkar Ativo 81 / 93 40% 1 18.01.2027 -
Sergey Gaiduk Salyut Ativo 72 / 86 40% 1 01.01.2027 -
Alexandr Lomovitskiy Torpedo-BelAZ Ativo 115 / 98 40% 1 31.12.2026 Mais informações
Islamzhan Nasyrov Ryazan Ativo 103 / 86 40% 1 31.12.2026 Mais informações
Lukas Simkus Stumbras Ativo 86 / 100 40% 1 03.08.2026 -
Vladislav Pulkach Vitebsk Ativo 82 / 89 40% 1 03.08.2026 -